sensor_id;sensor_type;location;lat;lon;timestamp;temperature;humidity
4081;DHT22;2055;50.074;8.436;2022-07-22T00:01:20;16.90;99.90
4081;DHT22;2055;50.074;8.436;2022-07-22T00:03:45;16.80;99.90
4081;DHT22;2055;50.074;8.436;2022-07-22T00:06:11;16.90;99.90
4081;DHT22;2055;50.074;8.436;2022-07-22T00:08:37;17.00;99.90
4081;DHT22;2055;50.074;8.436;2022-07-22T00:11:03;16.90;99.90
4081;DHT22;2055;50.074;8.436;2022-07-22T00:13:29;16.80;99.90
4081;DHT22;2055;50.074;8.436;2022-07-22T00:15:55;16.90;99.90
4081;DHT22;2055;50.074;8.436;2022-07-22T00:18:20;17.10;99.90
4081;DHT22;2055;50.074;8.436;2022-07-22T00:20:46;17.00;99.90
4081;DHT22;2055;50.074;8.436;2022-07-22T00:23:11;17.00;99.90
4081;DHT22;2055;50.074;8.436;2022-07-22T00:25:37;17.00;99.90
4081;DHT22;2055;50.074;8.436;2022-07-22T00:28:03;16.90;99.90
4081;DHT22;2055;50.074;8.436;2022-07-22T00:30:29;16.90;99.90
4081;DHT22;2055;50.074;8.436;2022-07-22T00:32:54;17.00;99.90
4081;DHT22;2055;50.074;8.436;2022-07-22T00:35:20;17.10;99.90
4081;DHT22;2055;50.074;8.436;2022-07-22T00:37:45;16.90;99.90
4081;DHT22;2055;50.074;8.436;2022-07-22T00:40:11;16.80;99.90
4081;DHT22;2055;50.074;8.436;2022-07-22T00:42:37;16.70;99.90
4081;DHT22;2055;50.074;8.436;2022-07-22T00:45:03;16.70;99.90
4081;DHT22;2055;50.074;8.436;2022-07-22T00:47:28;16.80;99.90
4081;DHT22;2055;50.074;8.436;2022-07-22T00:49:54;16.80;99.90
4081;DHT22;2055;50.074;8.436;2022-07-22T00:52:20;16.80;99.90
4081;DHT22;2055;50.074;8.436;2022-07-22T00:54:46;16.70;99.90
4081;DHT22;2055;50.074;8.436;2022-07-22T00:57:12;16.80;99.90
4081;DHT22;2055;50.074;8.436;2022-07-22T00:59:38;16.70;99.90
4081;DHT22;2055;50.074;8.436;2022-07-22T01:02:03;16.80;99.90
4081;DHT22;2055;50.074;8.436;2022-07-22T01:04:29;16.70;99.90
4081;DHT22;2055;50.074;8.436;2022-07-22T01:06:54;16.60;99.90
4081;DHT22;2055;50.074;8.436;2022-07-22T01:09:20;16.60;99.90
4081;DHT22;2055;50.074;8.436;2022-07-22T01:11:46;16.70;99.90
4081;DHT22;2055;50.074;8.436;2022-07-22T01:14:11;16.70;99.90
4081;DHT22;2055;50.074;8.436;2022-07-22T01:16:37;16.80;99.90
4081;DHT22;2055;50.074;8.436;2022-07-22T01:19:03;16.80;99.90
4081;DHT22;2055;50.074;8.436;2022-07-22T01:21:29;16.80;99.90
4081;DHT22;2055;50.074;8.436;2022-07-22T01:23:55;16.80;99.90
4081;DHT22;2055;50.074;8.436;2022-07-22T01:26:21;16.80;99.90
4081;DHT22;2055;50.074;8.436;2022-07-22T01:28:46;16.80;99.90
4081;DHT22;2055;50.074;8.436;2022-07-22T01:31:12;16.80;99.90
4081;DHT22;2055;50.074;8.436;2022-07-22T01:33:38;16.80;99.90
4081;DHT22;2055;50.074;8.436;2022-07-22T01:36:04;16.80;99.90
4081;DHT22;2055;50.074;8.436;2022-07-22T01:38:30;16.80;99.90
4081;DHT22;2055;50.074;8.436;2022-07-22T01:40:56;16.80;99.90
4081;DHT22;2055;50.074;8.436;2022-07-22T01:43:22;16.70;99.90
4081;DHT22;2055;50.074;8.436;2022-07-22T01:45:49;16.70;99.90
4081;DHT22;2055;50.074;8.436;2022-07-22T01:48:16;16.80;99.90
4081;DHT22;2055;50.074;8.436;2022-07-22T01:50:43;16.80;99.90
4081;DHT22;2055;50.074;8.436;2022-07-22T01:53:08;16.90;99.90
4081;DHT22;2055;50.074;8.436;2022-07-22T01:55:34;16.80;99.90
4081;DHT22;2055;50.074;8.436;2022-07-22T01:58:00;16.80;99.90
4081;DHT22;2055;50.074;8.436;2022-07-22T02:00:26;16.80;99.90
4081;DHT22;2055;50.074;8.436;2022-07-22T02:02:51;16.70;99.90
4081;DHT22;2055;50.074;8.436;2022-07-22T02:05:17;16.70;99.90
4081;DHT22;2055;50.074;8.436;2022-07-22T02:07:43;17.00;99.90
4081;DHT22;2055;50.074;8.436;2022-07-22T02:10:08;16.90;99.90
4081;DHT22;2055;50.074;8.436;2022-07-22T02:12:34;16.90;99.90
4081;DHT22;2055;50.074;8.436;2022-07-22T02:15:00;16.90;99.90
4081;DHT22;2055;50.074;8.436;2022-07-22T02:17:25;16.90;99.90
4081;DHT22;2055;50.074;8.436;2022-07-22T02:19:51;16.90;99.90
4081;DHT22;2055;50.074;8.436;2022-07-22T02:22:17;16.80;99.90
4081;DHT22;2055;50.074;8.436;2022-07-22T02:24:42;16.90;99.90
4081;DHT22;2055;50.074;8.436;2022-07-22T02:27:08;16.90;99.90
4081;DHT22;2055;50.074;8.436;2022-07-22T02:29:34;16.80;99.90
4081;DHT22;2055;50.074;8.436;2022-07-22T02:31:59;16.80;99.90
4081;DHT22;2055;50.074;8.436;2022-07-22T02:34:25;16.80;99.90
4081;DHT22;2055;50.074;8.436;2022-07-22T02:36:51;16.70;99.90
4081;DHT22;2055;50.074;8.436;2022-07-22T02:39:18;16.80;99.90
4081;DHT22;2055;50.074;8.436;2022-07-22T02:41:44;16.70;99.90
4081;DHT22;2055;50.074;8.436;2022-07-22T02:44:09;16.60;99.90
4081;DHT22;2055;50.074;8.436;2022-07-22T02:46:35;16.70;99.90
4081;DHT22;2055;50.074;8.436;2022-07-22T02:49:01;16.60;99.90
4081;DHT22;2055;50.074;8.436;2022-07-22T02:51:26;16.50;99.90
4081;DHT22;2055;50.074;8.436;2022-07-22T02:53:52;16.50;99.90
4081;DHT22;2055;50.074;8.436;2022-07-22T02:56:17;16.40;99.90
4081;DHT22;2055;50.074;8.436;2022-07-22T02:58:45;16.40;99.90
4081;DHT22;2055;50.074;8.436;2022-07-22T03:01:11;16.40;99.90
4081;DHT22;2055;50.074;8.436;2022-07-22T03:03:37;16.30;99.90
4081;DHT22;2055;50.074;8.436;2022-07-22T03:06:03;16.30;99.90
4081;DHT22;2055;50.074;8.436;2022-07-22T03:08:29;16.30;99.90
4081;DHT22;2055;50.074;8.436;2022-07-22T03:10:54;16.30;99.90
4081;DHT22;2055;50.074;8.436;2022-07-22T03:13:20;16.50;99.90
4081;DHT22;2055;50.074;8.436;2022-07-22T03:15:45;16.40;99.90
4081;DHT22;2055;50.074;8.436;2022-07-22T03:18:12;16.30;99.90
4081;DHT22;2055;50.074;8.436;2022-07-22T03:20:38;16.30;99.90
4081;DHT22;2055;50.074;8.436;2022-07-22T03:23:03;16.30;99.90
4081;DHT22;2055;50.074;8.436;2022-07-22T03:25:29;16.30;99.90
4081;DHT22;2055;50.074;8.436;2022-07-22T03:27:56;16.30;99.90
4081;DHT22;2055;50.074;8.436;2022-07-22T03:30:22;16.20;99.90
4081;DHT22;2055;50.074;8.436;2022-07-22T03:32:48;16.20;99.90
4081;DHT22;2055;50.074;8.436;2022-07-22T03:35:16;16.20;99.90
4081;DHT22;2055;50.074;8.436;2022-07-22T03:37:42;16.10;99.90
4081;DHT22;2055;50.074;8.436;2022-07-22T03:40:09;16.10;99.90
4081;DHT22;2055;50.074;8.436;2022-07-22T03:42:35;16.10;99.90
4081;DHT22;2055;50.074;8.436;2022-07-22T03:45:01;16.10;99.90
4081;DHT22;2055;50.074;8.436;2022-07-22T03:47:26;16.10;99.90
4081;DHT22;2055;50.074;8.436;2022-07-22T03:49:52;16.10;99.90
4081;DHT22;2055;50.074;8.436;2022-07-22T03:52:18;16.10;99.90
4081;DHT22;2055;50.074;8.436;2022-07-22T03:54:44;16.10;99.90
4081;DHT22;2055;50.074;8.436;2022-07-22T03:57:09;16.20;99.90
4081;DHT22;2055;50.074;8.436;2022-07-22T03:59:35;16.20;99.90
4081;DHT22;2055;50.074;8.436;2022-07-22T04:02:02;16.20;99.90
4081;DHT22;2055;50.074;8.436;2022-07-22T04:04:27;16.30;99.90
4081;DHT22;2055;50.074;8.436;2022-07-22T04:06:53;16.30;99.90
4081;DHT22;2055;50.074;8.436;2022-07-22T04:09:19;16.10;99.90
4081;DHT22;2055;50.074;8.436;2022-07-22T04:11:45;16.40;99.90
4081;DHT22;2055;50.074;8.436;2022-07-22T04:14:10;16.30;99.90
4081;DHT22;2055;50.074;8.436;2022-07-22T04:16:36;16.40;99.90
4081;DHT22;2055;50.074;8.436;2022-07-22T04:19:03;16.40;99.90
4081;DHT22;2055;50.074;8.436;2022-07-22T04:21:29;16.50;99.90
4081;DHT22;2055;50.074;8.436;2022-07-22T04:23:55;16.50;99.90
4081;DHT22;2055;50.074;8.436;2022-07-22T04:26:20;16.60;99.90
4081;DHT22;2055;50.074;8.436;2022-07-22T04:28:46;16.60;99.90
4081;DHT22;2055;50.074;8.436;2022-07-22T04:31:12;16.60;99.90
4081;DHT22;2055;50.074;8.436;2022-07-22T04:33:37;16.70;99.90
4081;DHT22;2055;50.074;8.436;2022-07-22T04:36:03;16.70;99.90
4081;DHT22;2055;50.074;8.436;2022-07-22T04:38:29;16.80;99.90
4081;DHT22;2055;50.074;8.436;2022-07-22T04:40:55;16.80;99.90
4081;DHT22;2055;50.074;8.436;2022-07-22T04:43:21;16.80;99.90
4081;DHT22;2055;50.074;8.436;2022-07-22T04:45:46;16.80;99.90
4081;DHT22;2055;50.074;8.436;2022-07-22T04:48:12;16.90;99.90
4081;DHT22;2055;50.074;8.436;2022-07-22T04:50:37;16.90;99.90
4081;DHT22;2055;50.074;8.436;2022-07-22T04:53:03;16.80;99.90
4081;DHT22;2055;50.074;8.436;2022-07-22T04:55:29;16.80;99.90
4081;DHT22;2055;50.074;8.436;2022-07-22T04:57:55;16.90;99.90
4081;DHT22;2055;50.074;8.436;2022-07-22T05:00:21;17.00;99.90
4081;DHT22;2055;50.074;8.436;2022-07-22T05:02:46;17.00;99.90
4081;DHT22;2055;50.074;8.436;2022-07-22T05:05:12;17.10;99.90
4081;DHT22;2055;50.074;8.436;2022-07-22T05:07:37;17.20;99.90
4081;DHT22;2055;50.074;8.436;2022-07-22T05:10:03;17.30;99.90
4081;DHT22;2055;50.074;8.436;2022-07-22T05:12:29;17.40;99.90
4081;DHT22;2055;50.074;8.436;2022-07-22T05:14:55;17.50;99.90
4081;DHT22;2055;50.074;8.436;2022-07-22T05:17:20;17.70;99.90
4081;DHT22;2055;50.074;8.436;2022-07-22T05:19:46;17.70;99.90
4081;DHT22;2055;50.074;8.436;2022-07-22T05:22:12;17.70;99.90
4081;DHT22;2055;50.074;8.436;2022-07-22T05:24:37;17.80;99.90
4081;DHT22;2055;50.074;8.436;2022-07-22T05:27:03;17.70;99.90
4081;DHT22;2055;50.074;8.436;2022-07-22T05:29:29;17.80;99.90
4081;DHT22;2055;50.074;8.436;2022-07-22T05:31:55;17.80;99.90
4081;DHT22;2055;50.074;8.436;2022-07-22T05:34:20;17.80;99.90
4081;DHT22;2055;50.074;8.436;2022-07-22T05:36:46;17.90;99.90
4081;DHT22;2055;50.074;8.436;2022-07-22T05:39:11;17.80;99.90
4081;DHT22;2055;50.074;8.436;2022-07-22T05:41:37;17.80;99.90
4081;DHT22;2055;50.074;8.436;2022-07-22T05:44:04;17.80;99.90
4081;DHT22;2055;50.074;8.436;2022-07-22T05:46:29;17.80;99.90
4081;DHT22;2055;50.074;8.436;2022-07-22T05:48:55;17.80;99.90
4081;DHT22;2055;50.074;8.436;2022-07-22T05:51:20;17.80;99.90
4081;DHT22;2055;50.074;8.436;2022-07-22T05:53:46;17.80;99.90
4081;DHT22;2055;50.074;8.436;2022-07-22T05:56:12;17.80;99.90
4081;DHT22;2055;50.074;8.436;2022-07-22T05:58:42;18.10;99.90
4081;DHT22;2055;50.074;8.436;2022-07-22T06:01:11;18.20;99.90
4081;DHT22;2055;50.074;8.436;2022-07-22T06:03:37;18.30;99.90
4081;DHT22;2055;50.074;8.436;2022-07-22T06:06:03;18.40;99.90
4081;DHT22;2055;50.074;8.436;2022-07-22T06:08:30;18.50;99.90
4081;DHT22;2055;50.074;8.436;2022-07-22T06:10:59;18.60;99.90
4081;DHT22;2055;50.074;8.436;2022-07-22T06:13:24;18.80;99.90
4081;DHT22;2055;50.074;8.436;2022-07-22T06:15:50;18.80;99.90
4081;DHT22;2055;50.074;8.436;2022-07-22T06:18:16;19.00;99.90
4081;DHT22;2055;50.074;8.436;2022-07-22T06:20:42;19.30;99.90
4081;DHT22;2055;50.074;8.436;2022-07-22T06:23:07;19.50;99.90
4081;DHT22;2055;50.074;8.436;2022-07-22T06:25:33;19.70;99.90
4081;DHT22;2055;50.074;8.436;2022-07-22T06:27:58;19.80;99.90
4081;DHT22;2055;50.074;8.436;2022-07-22T06:30:24;19.70;99.90
4081;DHT22;2055;50.074;8.436;2022-07-22T06:32:49;19.90;99.90
4081;DHT22;2055;50.074;8.436;2022-07-22T06:35:15;20.00;99.90
4081;DHT22;2055;50.074;8.436;2022-07-22T06:37:40;20.10;99.90
4081;DHT22;2055;50.074;8.436;2022-07-22T06:40:06;20.20;99.90
4081;DHT22;2055;50.074;8.436;2022-07-22T06:42:32;20.20;99.90
4081;DHT22;2055;50.074;8.436;2022-07-22T06:44:58;19.80;99.90
4081;DHT22;2055;50.074;8.436;2022-07-22T06:47:23;20.00;99.90
4081;DHT22;2055;50.074;8.436;2022-07-22T06:49:49;20.20;99.90
4081;DHT22;2055;50.074;8.436;2022-07-22T06:52:14;19.90;99.90
4081;DHT22;2055;50.074;8.436;2022-07-22T06:54:40;20.00;99.90
4081;DHT22;2055;50.074;8.436;2022-07-22T06:57:05;20.40;99.90
4081;DHT22;2055;50.074;8.436;2022-07-22T06:59:31;20.50;99.90
4081;DHT22;2055;50.074;8.436;2022-07-22T07:01:56;20.30;99.90
4081;DHT22;2055;50.074;8.436;2022-07-22T07:04:22;20.30;99.90
4081;DHT22;2055;50.074;8.436;2022-07-22T07:06:47;20.30;99.90
4081;DHT22;2055;50.074;8.436;2022-07-22T07:09:13;20.50;99.90
4081;DHT22;2055;50.074;8.436;2022-07-22T07:11:38;20.60;99.90
4081;DHT22;2055;50.074;8.436;2022-07-22T07:14:04;20.40;99.90
4081;DHT22;2055;50.074;8.436;2022-07-22T07:16:30;20.50;99.90
4081;DHT22;2055;50.074;8.436;2022-07-22T07:18:55;20.60;99.90
4081;DHT22;2055;50.074;8.436;2022-07-22T07:21:21;20.90;99.90
4081;DHT22;2055;50.074;8.436;2022-07-22T07:23:46;21.30;99.90
4081;DHT22;2055;50.074;8.436;2022-07-22T07:26:12;21.30;99.90
4081;DHT22;2055;50.074;8.436;2022-07-22T07:28:38;21.00;99.90
4081;DHT22;2055;50.074;8.436;2022-07-22T07:31:04;20.90;99.90
4081;DHT22;2055;50.074;8.436;2022-07-22T07:33:30;21.40;99.90
4081;DHT22;2055;50.074;8.436;2022-07-22T07:35:56;21.70;99.90
4081;DHT22;2055;50.074;8.436;2022-07-22T07:38:21;22.00;99.90
4081;DHT22;2055;50.074;8.436;2022-07-22T07:40:47;21.90;99.90
4081;DHT22;2055;50.074;8.436;2022-07-22T07:43:13;21.10;99.90
4081;DHT22;2055;50.074;8.436;2022-07-22T07:45:38;21.10;99.90
4081;DHT22;2055;50.074;8.436;2022-07-22T07:48:04;21.30;99.90
4081;DHT22;2055;50.074;8.436;2022-07-22T07:50:30;21.50;99.90
4081;DHT22;2055;50.074;8.436;2022-07-22T07:52:56;21.70;99.90
4081;DHT22;2055;50.074;8.436;2022-07-22T07:55:22;21.90;99.90
4081;DHT22;2055;50.074;8.436;2022-07-22T07:57:49;21.70;99.90
4081;DHT22;2055;50.074;8.436;2022-07-22T08:00:15;21.60;99.90
4081;DHT22;2055;50.074;8.436;2022-07-22T08:02:42;21.50;99.90
4081;DHT22;2055;50.074;8.436;2022-07-22T08:05:09;21.60;99.90
4081;DHT22;2055;50.074;8.436;2022-07-22T08:07:35;21.80;99.90
4081;DHT22;2055;50.074;8.436;2022-07-22T08:10:01;21.80;99.90
4081;DHT22;2055;50.074;8.436;2022-07-22T08:12:26;22.00;99.90
4081;DHT22;2055;50.074;8.436;2022-07-22T08:14:52;21.90;99.90
4081;DHT22;2055;50.074;8.436;2022-07-22T08:17:18;21.70;99.90
4081;DHT22;2055;50.074;8.436;2022-07-22T08:19:43;21.80;99.90
4081;DHT22;2055;50.074;8.436;2022-07-22T08:22:09;21.70;99.90
4081;DHT22;2055;50.074;8.436;2022-07-22T08:24:34;21.40;99.90
4081;DHT22;2055;50.074;8.436;2022-07-22T08:27:00;21.10;99.90
4081;DHT22;2055;50.074;8.436;2022-07-22T08:29:27;21.50;99.90
4081;DHT22;2055;50.074;8.436;2022-07-22T08:31:52;21.00;99.90
4081;DHT22;2055;50.074;8.436;2022-07-22T08:34:18;21.10;99.90
4081;DHT22;2055;50.074;8.436;2022-07-22T08:36:43;21.40;99.90
4081;DHT22;2055;50.074;8.436;2022-07-22T08:39:09;21.90;99.90
4081;DHT22;2055;50.074;8.436;2022-07-22T08:41:36;22.30;99.90
4081;DHT22;2055;50.074;8.436;2022-07-22T08:44:04;22.30;99.90
4081;DHT22;2055;50.074;8.436;2022-07-22T08:46:30;22.20;99.90
4081;DHT22;2055;50.074;8.436;2022-07-22T08:48:55;22.30;99.90
4081;DHT22;2055;50.074;8.436;2022-07-22T08:51:21;22.20;99.90
4081;DHT22;2055;50.074;8.436;2022-07-22T08:53:47;21.80;99.90
4081;DHT22;2055;50.074;8.436;2022-07-22T08:56:13;21.50;99.90
4081;DHT22;2055;50.074;8.436;2022-07-22T08:58:40;22.00;99.90
4081;DHT22;2055;50.074;8.436;2022-07-22T09:01:07;22.40;99.90
4081;DHT22;2055;50.074;8.436;2022-07-22T09:03:33;22.80;99.90
4081;DHT22;2055;50.074;8.436;2022-07-22T09:05:59;22.90;99.90
4081;DHT22;2055;50.074;8.436;2022-07-22T09:08:24;23.30;99.90
4081;DHT22;2055;50.074;8.436;2022-07-22T09:10:50;23.20;99.90
4081;DHT22;2055;50.074;8.436;2022-07-22T09:13:16;23.10;99.90
4081;DHT22;2055;50.074;8.436;2022-07-22T09:15:51;22.80;99.90
4081;DHT22;2055;50.074;8.436;2022-07-22T09:18:17;23.20;99.90
4081;DHT22;2055;50.074;8.436;2022-07-22T09:20:43;22.80;99.90
4081;DHT22;2055;50.074;8.436;2022-07-22T09:23:19;23.10;99.90
4081;DHT22;2055;50.074;8.436;2022-07-22T09:25:48;23.10;99.90
4081;DHT22;2055;50.074;8.436;2022-07-22T09:28:20;23.20;99.90
4081;DHT22;2055;50.074;8.436;2022-07-22T09:30:50;23.50;99.90
4081;DHT22;2055;50.074;8.436;2022-07-22T09:33:16;23.60;99.90
4081;DHT22;2055;50.074;8.436;2022-07-22T09:35:43;24.10;99.90
4081;DHT22;2055;50.074;8.436;2022-07-22T09:38:10;24.40;99.90
4081;DHT22;2055;50.074;8.436;2022-07-22T09:40:44;24.40;99.90
4081;DHT22;2055;50.074;8.436;2022-07-22T09:43:12;24.50;99.90
4081;DHT22;2055;50.074;8.436;2022-07-22T09:45:47;24.90;99.90
4081;DHT22;2055;50.074;8.436;2022-07-22T09:48:13;24.90;99.90
4081;DHT22;2055;50.074;8.436;2022-07-22T09:50:39;25.40;99.90
4081;DHT22;2055;50.074;8.436;2022-07-22T09:53:05;24.40;99.90
4081;DHT22;2055;50.074;8.436;2022-07-22T09:55:30;25.30;99.90
4081;DHT22;2055;50.074;8.436;2022-07-22T09:57:58;24.70;99.90
4081;DHT22;2055;50.074;8.436;2022-07-22T10:00:25;25.30;99.90
4081;DHT22;2055;50.074;8.436;2022-07-22T10:05:23;25.60;99.90
4081;DHT22;2055;50.074;8.436;2022-07-22T10:07:50;25.90;99.90
4081;DHT22;2055;50.074;8.436;2022-07-22T10:10:19;25.50;99.90
4081;DHT22;2055;50.074;8.436;2022-07-22T10:12:47;25.50;99.90
4081;DHT22;2055;50.074;8.436;2022-07-22T10:15:13;26.20;99.90
4081;DHT22;2055;50.074;8.436;2022-07-22T10:17:41;26.30;99.90
4081;DHT22;2055;50.074;8.436;2022-07-22T10:20:08;25.90;99.90
4081;DHT22;2055;50.074;8.436;2022-07-22T10:25:10;27.00;99.90
4081;DHT22;2055;50.074;8.436;2022-07-22T10:27:47;27.30;99.90
4081;DHT22;2055;50.074;8.436;2022-07-22T10:30:15;26.70;99.90
4081;DHT22;2055;50.074;8.436;2022-07-22T10:32:41;27.70;99.90
4081;DHT22;2055;50.074;8.436;2022-07-22T10:40:20;27.10;99.90
4081;DHT22;2055;50.074;8.436;2022-07-22T10:45:31;27.90;99.90
4081;DHT22;2055;50.074;8.436;2022-07-22T10:48:03;28.10;99.90
4081;DHT22;2055;50.074;8.436;2022-07-22T10:53:10;29.80;99.90
4081;DHT22;2055;50.074;8.436;2022-07-22T10:55:38;29.70;99.90
4081;DHT22;2055;50.074;8.436;2022-07-22T11:00:59;29.40;99.90
4081;DHT22;2055;50.074;8.436;2022-07-22T11:03:25;29.40;99.90
4081;DHT22;2055;50.074;8.436;2022-07-22T11:05:51;29.60;99.90
4081;DHT22;2055;50.074;8.436;2022-07-22T11:08:17;29.40;99.90
4081;DHT22;2055;50.074;8.436;2022-07-22T11:10:48;29.50;99.90
4081;DHT22;2055;50.074;8.436;2022-07-22T11:13:36;29.10;99.90
4081;DHT22;2055;50.074;8.436;2022-07-22T11:16:22;28.10;99.90
4081;DHT22;2055;50.074;8.436;2022-07-22T11:18:53;29.40;99.90
4081;DHT22;2055;50.074;8.436;2022-07-22T11:21:23;29.10;99.90
4081;DHT22;2055;50.074;8.436;2022-07-22T11:23:51;29.90;99.90
4081;DHT22;2055;50.074;8.436;2022-07-22T11:26:20;29.90;99.90
4081;DHT22;2055;50.074;8.436;2022-07-22T11:28:46;29.40;99.90
4081;DHT22;2055;50.074;8.436;2022-07-22T11:31:17;29.80;99.90
4081;DHT22;2055;50.074;8.436;2022-07-22T11:33:44;29.50;99.90
4081;DHT22;2055;50.074;8.436;2022-07-22T11:36:11;30.60;99.90
4081;DHT22;2055;50.074;8.436;2022-07-22T11:38:48;30.70;99.90
4081;DHT22;2055;50.074;8.436;2022-07-22T11:41:18;30.70;99.90
4081;DHT22;2055;50.074;8.436;2022-07-22T11:43:48;31.50;99.90
4081;DHT22;2055;50.074;8.436;2022-07-22T11:46:16;31.10;99.90
4081;DHT22;2055;50.074;8.436;2022-07-22T11:48:42;29.60;99.90
4081;DHT22;2055;50.074;8.436;2022-07-22T11:51:09;30.50;99.90
4081;DHT22;2055;50.074;8.436;2022-07-22T11:53:37;29.60;99.90
4081;DHT22;2055;50.074;8.436;2022-07-22T11:56:04;30.60;99.90
4081;DHT22;2055;50.074;8.436;2022-07-22T11:58:47;30.70;99.90
4081;DHT22;2055;50.074;8.436;2022-07-22T12:01:16;31.40;99.90
4081;DHT22;2055;50.074;8.436;2022-07-22T12:03:45;30.80;99.90
4081;DHT22;2055;50.074;8.436;2022-07-22T12:06:13;31.60;99.90
4081;DHT22;2055;50.074;8.436;2022-07-22T12:08:41;32.00;99.90
4081;DHT22;2055;50.074;8.436;2022-07-22T12:11:09;31.70;99.90
4081;DHT22;2055;50.074;8.436;2022-07-22T12:13:34;31.90;99.90
4081;DHT22;2055;50.074;8.436;2022-07-22T12:16:19;31.90;99.90
4081;DHT22;2055;50.074;8.436;2022-07-22T12:18:51;31.30;99.90
4081;DHT22;2055;50.074;8.436;2022-07-22T12:21:17;30.80;99.90
4081;DHT22;2055;50.074;8.436;2022-07-22T12:23:52;31.10;99.90
4081;DHT22;2055;50.074;8.436;2022-07-22T12:26:18;31.00;99.90
4081;DHT22;2055;50.074;8.436;2022-07-22T12:28:44;32.40;99.90
4081;DHT22;2055;50.074;8.436;2022-07-22T12:31:10;33.50;99.90
4081;DHT22;2055;50.074;8.436;2022-07-22T12:33:35;33.10;99.40
4081;DHT22;2055;50.074;8.436;2022-07-22T12:36:06;32.70;98.40
4081;DHT22;2055;50.074;8.436;2022-07-22T12:38:33;32.90;99.20
4081;DHT22;2055;50.074;8.436;2022-07-22T12:41:25;32.60;99.10
4081;DHT22;2055;50.074;8.436;2022-07-22T12:43:51;32.50;98.90
4081;DHT22;2055;50.074;8.436;2022-07-22T12:46:17;32.80;98.50
4081;DHT22;2055;50.074;8.436;2022-07-22T12:48:53;31.70;99.10
4081;DHT22;2055;50.074;8.436;2022-07-22T12:51:19;32.90;97.70
4081;DHT22;2055;50.074;8.436;2022-07-22T12:53:45;33.10;99.80
4081;DHT22;2055;50.074;8.436;2022-07-22T12:56:10;33.40;98.50
4081;DHT22;2055;50.074;8.436;2022-07-22T12:58:37;34.00;97.70
4081;DHT22;2055;50.074;8.436;2022-07-22T13:01:06;32.80;96.90
4081;DHT22;2055;50.074;8.436;2022-07-22T13:03:33;32.20;96.60
4081;DHT22;2055;50.074;8.436;2022-07-22T13:06:01;32.80;97.20
4081;DHT22;2055;50.074;8.436;2022-07-22T13:08:28;33.50;96.60
4081;DHT22;2055;50.074;8.436;2022-07-22T13:10:55;33.40;97.80
4081;DHT22;2055;50.074;8.436;2022-07-22T13:13:22;32.80;97.50
4081;DHT22;2055;50.074;8.436;2022-07-22T13:15:48;33.40;97.20
4081;DHT22;2055;50.074;8.436;2022-07-22T13:18:15;34.40;96.50
4081;DHT22;2055;50.074;8.436;2022-07-22T13:20:41;34.90;95.70
4081;DHT22;2055;50.074;8.436;2022-07-22T13:23:06;33.60;95.20
4081;DHT22;2055;50.074;8.436;2022-07-22T13:25:32;31.80;95.70
4081;DHT22;2055;50.074;8.436;2022-07-22T13:27:59;32.90;96.40
4081;DHT22;2055;50.074;8.436;2022-07-22T13:30:25;32.30;95.60
4081;DHT22;2055;50.074;8.436;2022-07-22T13:32:50;32.90;95.10
4081;DHT22;2055;50.074;8.436;2022-07-22T13:35:17;32.00;95.30
4081;DHT22;2055;50.074;8.436;2022-07-22T13:37:43;30.60;96.30
4081;DHT22;2055;50.074;8.436;2022-07-22T13:40:09;31.50;97.10
4081;DHT22;2055;50.074;8.436;2022-07-22T13:42:35;32.80;95.80
4081;DHT22;2055;50.074;8.436;2022-07-22T13:45:00;34.20;96.00
4081;DHT22;2055;50.074;8.436;2022-07-22T13:47:26;35.10;94.20
4081;DHT22;2055;50.074;8.436;2022-07-22T13:49:52;35.40;93.60
4081;DHT22;2055;50.074;8.436;2022-07-22T13:52:18;34.40;95.20
4081;DHT22;2055;50.074;8.436;2022-07-22T13:54:45;34.90;94.40
4081;DHT22;2055;50.074;8.436;2022-07-22T13:57:10;35.10;93.60
4081;DHT22;2055;50.074;8.436;2022-07-22T13:59:37;34.60;92.90
4081;DHT22;2055;50.074;8.436;2022-07-22T14:02:03;34.10;93.70
4081;DHT22;2055;50.074;8.436;2022-07-22T14:04:29;33.70;94.90
4081;DHT22;2055;50.074;8.436;2022-07-22T14:06:54;33.80;94.00
4081;DHT22;2055;50.074;8.436;2022-07-22T14:09:20;34.10;93.80
4081;DHT22;2055;50.074;8.436;2022-07-22T14:11:46;34.70;94.00
4081;DHT22;2055;50.074;8.436;2022-07-22T14:14:12;35.70;93.40
4081;DHT22;2055;50.074;8.436;2022-07-22T14:16:38;35.90;93.90
4081;DHT22;2055;50.074;8.436;2022-07-22T14:19:10;35.30;94.00
4081;DHT22;2055;50.074;8.436;2022-07-22T14:21:38;32.50;96.20
4081;DHT22;2055;50.074;8.436;2022-07-22T14:24:06;33.20;93.80
4081;DHT22;2055;50.074;8.436;2022-07-22T14:26:33;33.00;93.80
4081;DHT22;2055;50.074;8.436;2022-07-22T14:28:59;33.00;93.90
4081;DHT22;2055;50.074;8.436;2022-07-22T14:31:25;33.00;94.30
4081;DHT22;2055;50.074;8.436;2022-07-22T14:33:51;34.00;94.30
4081;DHT22;2055;50.074;8.436;2022-07-22T14:36:16;32.70;94.10
4081;DHT22;2055;50.074;8.436;2022-07-22T14:38:42;32.20;94.50
4081;DHT22;2055;50.074;8.436;2022-07-22T14:41:08;32.20;94.90
4081;DHT22;2055;50.074;8.436;2022-07-22T14:43:34;31.90;95.30
4081;DHT22;2055;50.074;8.436;2022-07-22T14:46:01;32.90;94.40
4081;DHT22;2055;50.074;8.436;2022-07-22T14:48:27;33.90;93.80
4081;DHT22;2055;50.074;8.436;2022-07-22T14:50:53;33.60;95.10
4081;DHT22;2055;50.074;8.436;2022-07-22T14:53:18;33.60;95.00
4081;DHT22;2055;50.074;8.436;2022-07-22T14:55:44;34.60;94.00
4081;DHT22;2055;50.074;8.436;2022-07-22T14:58:10;35.40;93.10
4081;DHT22;2055;50.074;8.436;2022-07-22T15:00:35;34.50;93.60
4081;DHT22;2055;50.074;8.436;2022-07-22T15:03:01;34.40;94.10
4081;DHT22;2055;50.074;8.436;2022-07-22T15:05:27;34.50;94.10
4081;DHT22;2055;50.074;8.436;2022-07-22T15:07:52;34.70;93.50
4081;DHT22;2055;50.074;8.436;2022-07-22T15:10:18;34.30;94.00
4081;DHT22;2055;50.074;8.436;2022-07-22T15:12:44;34.40;94.40
4081;DHT22;2055;50.074;8.436;2022-07-22T15:15:09;33.70;93.90
4081;DHT22;2055;50.074;8.436;2022-07-22T15:17:37;34.30;92.40
4081;DHT22;2055;50.074;8.436;2022-07-22T15:20:05;33.20;93.10
4081;DHT22;2055;50.074;8.436;2022-07-22T15:22:31;32.90;94.30
4081;DHT22;2055;50.074;8.436;2022-07-22T15:24:57;33.50;95.30
4081;DHT22;2055;50.074;8.436;2022-07-22T15:27:22;35.00;92.90
4081;DHT22;2055;50.074;8.436;2022-07-22T15:29:48;34.90;92.00
4081;DHT22;2055;50.074;8.436;2022-07-22T15:32:15;35.10;91.90
4081;DHT22;2055;50.074;8.436;2022-07-22T15:34:41;35.50;92.10
4081;DHT22;2055;50.074;8.436;2022-07-22T15:37:06;34.50;92.10
4081;DHT22;2055;50.074;8.436;2022-07-22T15:39:32;34.30;92.70
4081;DHT22;2055;50.074;8.436;2022-07-22T15:41:58;34.20;92.40
4081;DHT22;2055;50.074;8.436;2022-07-22T15:44:23;34.00;92.00
4081;DHT22;2055;50.074;8.436;2022-07-22T15:46:49;34.90;91.80
4081;DHT22;2055;50.074;8.436;2022-07-22T15:49:15;34.20;91.10
4081;DHT22;2055;50.074;8.436;2022-07-22T15:51:40;33.50;93.60
4081;DHT22;2055;50.074;8.436;2022-07-22T15:54:06;33.10;93.20
4081;DHT22;2055;50.074;8.436;2022-07-22T15:56:31;33.40;92.70
4081;DHT22;2055;50.074;8.436;2022-07-22T15:58:57;33.50;93.10
4081;DHT22;2055;50.074;8.436;2022-07-22T16:01:42;33.00;92.20
4081;DHT22;2055;50.074;8.436;2022-07-22T16:04:08;34.20;92.00
4081;DHT22;2055;50.074;8.436;2022-07-22T16:06:34;33.60;90.90
4081;DHT22;2055;50.074;8.436;2022-07-22T16:08:59;32.50;91.80
4081;DHT22;2055;50.074;8.436;2022-07-22T16:11:25;33.10;92.00
4081;DHT22;2055;50.074;8.436;2022-07-22T16:13:51;33.50;92.20
4081;DHT22;2055;50.074;8.436;2022-07-22T16:16:16;33.50;91.40